Belleville, Canada
Current Conditions -  °F | °C
As of 2:00 AM on Friday 19 Dec 2014 (Local Time) from CYTR Reporting Station
Overcast Overcast  
Wind Chill: 11°   Ceiling: 2100
Heat Index: 21°   Visibility: 15mi
Dew Point: 14°   Wind: 9mph
Humidity: 74%   Direction: 320°NW
Pressure: 30.09"   Gusts: NA
Location:  44.16°N, 77.38°W
Report Text: CYTR 190700Z 32008KT 15SM OVC021 M06/M10 A3009 RMK SC8 SLP194
Loading
Personal Weather Stations






























Interactive Weather Map New forecast layout! Learn more

10-Day Weather Forecast

Advertisements
Track Severe Weather on mobile